Time;durP1;ratioP1;P1;durP2;ratioP2;P2;SDS_P1;SDS_P2;PMS_P1;PMS_P2;Temp;Humidity;BMP_temperature;BMP_pressure;BME280_temperature;BME280_humidity;BME280_pressure;Samples;Min_cycle;Max_cycle;Signal;HPM_P1;HPM_P2
2021/04/30 00:00:59;;;;;;;6.00;5.50;;;8.40;99.90;;;;;;5090695;28;21147;-87
2021/04/30 00:03:32;;;;;;;6.27;5.77;;;8.40;99.90;;;;;;5086917;28;20670;-87
2021/04/30 00:06:02;;;;;;;5.63;5.23;;;8.40;99.90;;;;;;5085749;28;20655;-87
2021/04/30 00:08:28;;;;;;;6.07;5.57;;;8.50;99.90;;;;;;5087918;28;20704;-87
2021/04/30 00:10:55;;;;;;;6.50;6.00;;;8.50;99.90;;;;;;5087636;28;20645;-86
2021/04/30 00:13:22;;;;;;;5.80;5.40;;;8.50;99.90;;;;;;5086153;28;20690;-87
2021/04/30 00:15:54;;;;;;;5.67;5.27;;;8.50;99.90;;;;;;5085859;28;20667;-86
2021/04/30 00:18:23;;;;;;;6.27;5.77;;;8.50;99.90;;;;;;5083314;28;21264;-86
2021/04/30 00:20:53;;;;;;;5.37;5.03;;;8.50;99.90;;;;;;5087097;28;20636;-86
2021/04/30 00:23:25;;;;;;;5.37;4.97;;;8.50;99.90;;;;;;5087941;28;20701;-87
2021/04/30 00:25:57;;;;;;;6.70;6.20;;;8.50;99.90;;;;;;5089635;28;20687;-87
2021/04/30 00:28:24;;;;;;;5.90;5.50;;;8.50;99.90;;;;;;5084856;28;20672;-87
2021/04/30 00:30:54;;;;;;;5.87;5.37;;;8.60;99.90;;;;;;5087169;28;20636;-87
2021/04/30 00:33:22;;;;;;;5.30;5.00;;;8.60;99.90;;;;;;5087260;28;20674;-86
2021/04/30 00:35:52;;;;;;;6.40;5.90;;;8.60;99.90;;;;;;5090839;28;20658;-86
2021/04/30 00:38:20;;;;;;;6.20;5.80;;;8.70;99.90;;;;;;5086599;28;21263;-87
2021/04/30 00:40:47;;;;;;;6.57;5.97;;;8.80;99.90;;;;;;5086442;28;20630;-87
2021/04/30 00:43:15;;;;;;;6.50;6.10;;;8.90;99.90;;;;;;5086816;28;20622;-86
2021/04/30 00:45:41;;;;;;;6.27;5.87;;;8.70;99.90;;;;;;5087606;28;21019;-87
2021/04/30 00:48:10;;;;;;;6.27;5.87;;;8.80;99.90;;;;;;5084195;28;20632;-87
2021/04/30 00:50:36;;;;;;;6.33;5.90;;;8.80;99.90;;;;;;5086880;28;21167;-87
2021/04/30 00:53:04;;;;;;;6.07;5.67;;;8.70;99.90;;;;;;5087876;28;20681;-87
2021/04/30 00:55:31;;;;;;;6.23;5.83;;;8.70;99.90;;;;;;5089285;28;20726;-88
2021/04/30 00:57:59;;;;;;;6.50;6.00;;;8.60;99.90;;;;;;5084341;28;20627;-88
2021/04/30 01:00:28;;;;;;;7.00;6.40;;;8.60;99.90;;;;;;5083059;28;21154;-87
2021/04/30 01:02:54;;;;;;;6.23;5.83;;;8.70;99.90;;;;;;5089701;28;20619;-87
2021/04/30 01:05:21;;;;;;;6.87;6.37;;;8.60;99.90;;;;;;5086747;28;20709;-87
2021/04/30 01:07:48;;;;;;;7.07;6.57;;;8.60;99.90;;;;;;5088320;28;20736;-86
2021/04/30 01:10:18;;;;;;;7.20;6.70;;;8.60;99.90;;;;;;5090214;28;20651;-87
2021/04/30 01:12:45;;;;;;;7.13;6.60;;;8.60;99.90;;;;;;5088886;28;20632;-86
2021/04/30 01:15:14;;;;;;;6.93;6.43;;;8.50;99.90;;;;;;5091771;28;20813;-87
2021/04/30 01:17:41;;;;;;;6.87;6.37;;;8.60;99.90;;;;;;5095708;28;20987;-87
2021/04/30 01:20:09;;;;;;;6.93;6.47;;;8.60;99.90;;;;;;5098121;28;21054;-86
2021/04/30 01:22:37;;;;;;;6.60;6.10;;;8.60;99.90;;;;;;5096155;28;20979;-86
2021/04/30 01:25:05;;;;;;;7.57;7.07;;;8.60;99.90;;;;;;5085568;28;20729;-87
2021/04/30 01:27:32;;;;;;;7.83;7.23;;;8.50;99.90;;;;;;5090224;28;20612;-87
2021/04/30 01:29:58;;;;;;;7.87;7.37;;;8.50;99.90;;;;;;5087549;28;20608;-87
2021/04/30 01:32:25;;;;;;;7.93;7.33;;;8.60;99.90;;;;;;5095435;28;20624;-86
2021/04/30 01:34:51;;;;;;;7.70;7.07;;;8.50;99.90;;;;;;5090863;28;20655;-88
2021/04/30 01:37:19;;;;;;;7.20;6.70;;;8.50;99.90;;;;;;5091800;28;20721;-87
2021/04/30 01:39:46;;;;;;;8.43;7.83;;;8.50;99.90;;;;;;5096770;28;21193;-88
2021/04/30 01:42:12;;;;;;;8.47;7.50;;;8.50;99.90;;;;;;5092386;28;20612;-87
2021/04/30 01:44:39;;;;;;;7.87;7.37;;;8.50;99.90;;;;;;5092040;28;20658;-88
2021/04/30 01:47:05;;;;;;;8.37;7.63;;;8.50;99.90;;;;;;5090823;28;20638;-87
2021/04/30 01:49:31;;;;;;;8.73;8.13;;;8.50;99.90;;;;;;5096972;28;20690;-87
2021/04/30 01:52:00;;;;;;;8.60;7.90;;;8.40;99.90;;;;;;5108589;28;20654;-88
2021/04/30 01:54:26;;;;;;;8.50;7.80;;;8.40;99.90;;;;;;5099819;28;20723;-88
2021/04/30 01:56:53;;;;;;;8.33;7.73;;;8.50;99.90;;;;;;5092929;28;20612;-87
2021/04/30 01:59:24;;;;;;;8.67;8.13;;;8.50;99.90;;;;;;5095518;28;20656;-88
2021/04/30 02:01:51;;;;;;;9.40;8.70;;;8.50;99.90;;;;;;5093230;28;20608;-88
2021/04/30 02:04:18;;;;;;;8.47;7.77;;;8.50;99.90;;;;;;5090046;28;20610;-87
2021/04/30 02:06:46;;;;;;;8.50;7.80;;;8.50;99.90;;;;;;5094231;28;20660;-88
2021/04/30 02:09:13;;;;;;;7.47;6.90;;;8.40;99.90;;;;;;5098990;28;20621;-87
2021/04/30 02:11:39;;;;;;;8.70;8.00;;;8.40;99.90;;;;;;5109627;28;20608;-88
2021/04/30 02:14:06;;;;;;;9.40;8.60;;;8.40;99.90;;;;;;5113969;28;20608;-87
2021/04/30 02:16:35;;;;;;;8.87;8.17;;;8.40;99.90;;;;;;5104217;28;20617;-88
2021/04/30 02:19:01;;;;;;;8.47;7.87;;;8.30;99.90;;;;;;5108864;28;20651;-86
2021/04/30 02:21:28;;;;;;;9.20;8.60;;;8.30;99.90;;;;;;5109986;28;20640;-86
2021/04/30 02:23:57;;;;;;;8.83;8.23;;;8.40;99.90;;;;;;5092098;28;21182;-87
2021/04/30 02:26:27;;;;;;;9.03;8.23;;;8.60;99.90;;;;;;5092292;28;21246;-87
2021/04/30 02:28:54;;;;;;;8.30;7.60;;;8.50;99.90;;;;;;5092339;28;20684;-89
2021/04/30 02:31:25;;;;;;;8.87;8.20;;;8.50;99.90;;;;;;5090942;28;21033;-88
2021/04/30 02:33:54;;;;;;;8.57;7.87;;;8.50;99.90;;;;;;5091487;28;20626;-87
2021/04/30 02:36:21;;;;;;;8.80;8.20;;;8.40;99.90;;;;;;5093045;28;20656;-88
2021/04/30 02:38:48;;;;;;;8.50;7.90;;;8.40;99.90;;;;;;5106190;28;20707;-87
2021/04/30 02:41:14;;;;;;;9.47;8.70;;;8.30;99.90;;;;;;5109641;28;20646;-87
2021/04/30 02:43:40;;;;;;;9.37;8.67;;;8.30;99.90;;;;;;5109723;28;20632;-88
2021/04/30 02:46:07;;;;;;;10.13;9.43;;;8.20;99.90;;;;;;5107442;28;20670;-87
2021/04/30 02:48:36;;;;;;;10.03;9.23;;;8.20;99.90;;;;;;5110253;28;20619;-87
2021/04/30 02:51:05;;;;;;;10.30;9.50;;;8.20;99.90;;;;;;5100136;28;20604;-87
2021/04/30 02:53:33;;;;;;;10.90;10.00;;;8.10;99.90;;;;;;5094064;28;21148;-88
2021/04/30 02:56:00;;;;;;;9.80;9.00;;;8.10;99.90;;;;;;5093847;28;20648;-88
2021/04/30 02:58:27;;;;;;;10.33;9.53;;;8.00;99.90;;;;;;5091906;28;20755;-88
2021/04/30 03:00:54;;;;;;;10.30;9.50;;;8.00;99.90;;;;;;5093172;28;20631;-87
2021/04/30 03:03:20;;;;;;;9.10;8.40;;;7.90;99.90;;;;;;5093647;28;20622;-88
2021/04/30 03:05:48;;;;;;;11.00;10.07;;;7.80;99.90;;;;;;5091534;28;20651;-88
2021/04/30 03:08:15;;;;;;;9.60;8.90;;;7.80;99.90;;;;;;5090183;28;20857;-87
2021/04/30 03:10:41;;;;;;;10.30;9.50;;;7.70;99.90;;;;;;5093201;28;20631;-88
2021/04/30 03:13:07;;;;;;;10.60;9.67;;;7.70;99.90;;;;;;5090042;28;20643;-87
2021/04/30 03:15:35;;;;;;;11.00;10.20;;;7.80;99.90;;;;;;5089269;28;20701;-88
2021/04/30 03:18:01;;;;;;;11.13;10.23;;;7.70;99.90;;;;;;5090241;28;20645;-88
2021/04/30 03:20:28;;;;;;;10.20;9.40;;;7.60;99.90;;;;;;5097996;28;20615;-87
2021/04/30 03:22:58;;;;;;;10.60;9.80;;;7.50;99.90;;;;;;5094169;28;20648;-87
2021/04/30 03:25:24;;;;;;;10.10;9.30;;;7.50;99.90;;;;;;5090415;28;20672;-88
2021/04/30 03:27:56;;;;;;;10.27;9.37;;;7.50;99.90;;;;;;5095534;28;20781;-87
2021/04/30 03:30:22;;;;;;;11.13;10.00;;;7.50;99.90;;;;;;5092116;28;20620;-87
2021/04/30 03:32:56;;;;;;;11.97;10.97;;;7.60;99.90;;;;;;5095244;28;20649;-87
2021/04/30 03:35:26;;;;;;;10.40;9.40;;;7.70;99.90;;;;;;5096656;28;20636;-88
2021/04/30 03:37:53;;;;;;;10.43;9.43;;;7.80;99.90;;;;;;5090663;28;20605;-88
2021/04/30 03:40:24;;;;;;;9.97;9.17;;;7.80;99.90;;;;;;5093577;28;20732;-87
2021/04/30 03:42:51;;;;;;;10.67;9.80;;;7.80;99.90;;;;;;5094365;28;20655;-87
2021/04/30 03:45:22;;;;;;;10.50;9.37;;;7.80;99.90;;;;;;5090750;28;20909;-88
2021/04/30 03:47:49;;;;;;;10.73;9.90;;;7.90;99.90;;;;;;5093849;28;20644;-88
2021/04/30 03:50:18;;;;;;;11.73;10.73;;;7.90;99.90;;;;;;5094809;28;20991;-87
2021/04/30 03:52:46;;;;;;;9.97;9.20;;;8.00;99.90;;;;;;5092070;28;20679;-87
2021/04/30 03:55:12;;;;;;;11.23;10.43;;;8.10;99.90;;;;;;5086464;28;21287;-88
2021/04/30 03:57:39;;;;;;;11.23;10.23;;;8.10;99.90;;;;;;5090184;28;20627;-87
2021/04/30 04:00:07;;;;;;;11.80;10.80;;;8.10;99.90;;;;;;5087967;28;20663;-87
2021/04/30 04:02:33;;;;;;;11.37;10.47;;;8.10;99.90;;;;;;5087986;28;20754;-88
2021/04/30 04:04:59;;;;;;;12.70;11.40;;;8.00;99.90;;;;;;5091358;28;20656;-87
2021/04/30 04:07:27;;;;;;;12.17;11.17;;;8.00;99.90;;;;;;5097709;28;20607;-88
2021/04/30 04:09:54;;;;;;;10.97;10.17;;;8.00;99.90;;;;;;5095209;28;20647;-87
2021/04/30 04:12:20;;;;;;;12.10;11.10;;;7.90;99.90;;;;;;5104691;28;20737;-86
2021/04/30 04:14:48;;;;;;;14.10;12.70;;;8.00;99.90;;;;;;5103744;28;20644;-87
2021/04/30 04:17:16;;;;;;;11.63;10.70;;;8.10;99.90;;;;;;5103406;28;20661;-88
2021/04/30 04:19:47;;;;;;;11.87;10.90;;;8.00;99.90;;;;;;5104349;28;20723;-87
2021/04/30 04:22:14;;;;;;;12.53;11.40;;;8.00;99.90;;;;;;5103736;28;20636;-87
2021/04/30 04:24:40;;;;;;;12.97;11.63;;;8.00;99.90;;;;;;5088622;28;20647;-88
2021/04/30 04:27:28;;;;;;;11.97;10.97;;;8.00;99.90;;;;;;5085115;28;20618;-87
2021/04/30 04:29:55;;;;;;;12.07;11.17;;;8.10;99.90;;;;;;5072557;28;20640;-86
2021/04/30 04:32:22;;;;;;;12.73;11.73;;;8.10;99.90;;;;;;5095398;28;20683;-88
2021/04/30 04:34:51;;;;;;;12.47;11.53;;;8.00;99.90;;;;;;5092907;28;20687;-88
2021/04/30 04:37:18;;;;;;;11.73;10.77;;;8.00;99.90;;;;;;5088239;28;20634;-87
2021/04/30 04:39:45;;;;;;;10.20;9.40;;;8.00;99.90;;;;;;5093382;28;20663;-89
2021/04/30 04:42:11;;;;;;;12.00;11.00;;;7.90;99.90;;;;;;5092033;28;20620;-89
2021/04/30 04:44:38;;;;;;;10.90;9.90;;;8.00;99.90;;;;;;5093281;28;20668;-87
2021/04/30 04:47:05;;;;;;;11.77;10.77;;;8.00;99.90;;;;;;5092366;28;20636;-88
2021/04/30 04:49:31;;;;;;;11.33;10.37;;;8.20;99.90;;;;;;5090949;28;20654;-87
2021/04/30 04:51:58;;;;;;;10.77;9.87;;;8.30;99.90;;;;;;5092148;28;20708;-88
2021/04/30 04:54:26;;;;;;;11.53;10.73;;;8.30;99.90;;;;;;5088807;28;20640;-87
2021/04/30 04:56:53;;;;;;;10.77;9.87;;;8.30;99.90;;;;;;5089873;28;21158;-87
2021/04/30 04:59:21;;;;;;;10.20;9.50;;;8.30;99.90;;;;;;5096290;28;20660;-87
2021/04/30 05:01:48;;;;;;;10.53;9.73;;;8.30;99.90;;;;;;5091835;28;20632;-88
2021/04/30 05:04:20;;;;;;;10.20;9.40;;;8.20;99.90;;;;;;5084234;28;20624;-88
2021/04/30 05:06:54;;;;;;;10.47;9.63;;;8.20;99.90;;;;;;5087876;28;20624;-87
2021/04/30 05:09:27;;;;;;;10.77;9.77;;;8.10;99.90;;;;;;5084440;28;21340;-88
2021/04/30 05:11:55;;;;;;;9.50;8.83;;;8.20;99.90;;;;;;5079311;28;20678;-87
2021/04/30 05:14:22;;;;;;;11.90;11.00;;;8.20;99.90;;;;;;5080865;28;21073;-86
2021/04/30 05:16:49;;;;;;;11.50;10.50;;;8.20;99.90;;;;;;5086863;28;20628;-87
2021/04/30 05:19:17;;;;;;;11.03;10.23;;;8.10;99.90;;;;;;5088833;28;20664;-86
2021/04/30 05:21:47;;;;;;;11.10;10.10;;;8.20;99.90;;;;;;5085773;28;21188;-87
2021/04/30 05:24:14;;;;;;;11.10;10.20;;;8.20;99.90;;;;;;5083522;28;20632;-86
2021/04/30 05:26:42;;;;;;;10.80;10.00;;;8.20;99.90;;;;;;5085942;28;20639;-87
2021/04/30 05:29:11;;;;;;;10.53;9.63;;;8.30;99.90;;;;;;5086982;28;20628;-87
2021/04/30 05:31:38;;;;;;;11.70;10.80;;;8.40;99.90;;;;;;5083640;28;21214;-87
2021/04/30 05:34:05;;;;;;;10.77;9.97;;;8.40;99.90;;;;;;5085320;28;20651;-87
2021/04/30 05:36:33;;;;;;;10.00;9.20;;;8.30;99.90;;;;;;5086017;28;20624;-86
2021/04/30 05:39:00;;;;;;;10.90;10.10;;;8.50;99.90;;;;;;5080657;28;21281;-87
2021/04/30 05:41:31;;;;;;;11.10;10.30;;;8.50;99.90;;;;;;5093402;28;20632;-87
2021/04/30 05:44:05;;;;;;;11.10;10.07;;;8.50;99.90;;;;;;5093216;28;20638;-86
2021/04/30 05:46:32;;;;;;;10.67;9.87;;;8.60;99.90;;;;;;5089004;28;20628;-86
2021/04/30 05:48:59;;;;;;;11.03;10.13;;;8.50;99.90;;;;;;5090872;28;20632;-87
2021/04/30 05:51:43;;;;;;;11.37;10.23;;;8.60;99.90;;;;;;5087797;28;20620;-87
2021/04/30 05:54:15;;;;;;;13.00;10.27;;;8.80;99.90;;;;;;5088030;28;20627;-87
2021/04/30 05:56:53;;;;;;;9.97;9.17;;;8.80;99.90;;;;;;5090168;28;20922;-87
2021/04/30 05:59:23;;;;;;;11.10;10.10;;;8.70;99.90;;;;;;5095648;28;20660;-87
2021/04/30 06:01:53;;;;;;;10.37;9.43;;;8.70;99.90;;;;;;5100006;28;20994;-87
2021/04/30 06:04:40;;;;;;;12.03;9.20;;;8.90;99.90;;;;;;5096669;28;20656;-87
2021/04/30 06:07:21;;;;;;;9.80;9.07;;;9.00;99.90;;;;;;5102831;28;20663;-87
2021/04/30 06:09:53;;;;;;;11.07;10.17;;;9.00;99.90;;;;;;5094429;28;20644;-87
2021/04/30 06:12:37;;;;;;;;;;;;;;;;;;;;;
2021/04/30 06:15:16;;;;;;;10.40;9.53;;;9.10;99.90;;;;;;5101964;28;20670;-88
2021/04/30 06:17:43;;;;;;;9.90;9.10;;;9.20;99.90;;;;;;5094391;28;20992;-85
2021/04/30 06:20:21;;;;;;;10.73;9.90;;;9.30;99.90;;;;;;5096591;28;20681;-88
2021/04/30 06:22:52;;;;;;;12.27;10.03;;;9.30;99.90;;;;;;5089608;28;21244;-86
2021/04/30 06:25:22;;;;;;;11.40;10.50;;;9.30;99.90;;;;;;5091867;28;20667;-87
2021/04/30 06:28:01;;;;;;;10.53;9.63;;;9.40;99.90;;;;;;5095576;28;20635;-87
2021/04/30 06:30:30;;;;;;;10.17;9.37;;;9.60;99.90;;;;;;5087535;28;20654;-88
2021/04/30 06:32:56;;;;;;;9.40;8.50;;;9.80;99.90;;;;;;5089385;28;20681;-88
2021/04/30 06:35:23;;;;;;;9.70;9.00;;;9.70;99.90;;;;;;5092512;28;20755;-87
2021/04/30 06:37:51;;;;;;;9.70;8.80;;;9.80;99.90;;;;;;5088093;28;20640;-88
2021/04/30 06:40:19;;;;;;;9.57;8.67;;;9.80;99.90;;;;;;5087664;28;20647;-87
2021/04/30 06:42:49;;;;;;;9.53;8.70;;;9.80;99.90;;;;;;5088806;28;20635;-89
2021/04/30 06:45:15;;;;;;;10.57;9.70;;;9.70;99.90;;;;;;5089415;28;21133;-88
2021/04/30 06:47:43;;;;;;;9.20;8.30;;;9.70;99.90;;;;;;5088495;28;21512;-88
2021/04/30 06:50:11;;;;;;;9.37;8.57;;;9.50;99.90;;;;;;5084572;28;20627;-88
2021/04/30 06:52:42;;;;;;;9.00;8.20;;;9.60;99.90;;;;;;5086570;28;20668;-87
2021/04/30 06:55:10;;;;;;;9.77;8.80;;;9.30;99.90;;;;;;5084933;28;20663;-87
2021/04/30 06:57:37;;;;;;;10.60;9.60;;;9.40;99.90;;;;;;5084061;28;20632;-88
2021/04/30 07:00:05;;;;;;;8.33;7.60;;;9.30;99.90;;;;;;5086909;28;20706;-87
2021/04/30 07:02:32;;;;;;;9.17;8.37;;;9.30;99.90;;;;;;5081479;28;20632;-87
2021/04/30 07:05:09;;;;;;;9.20;8.50;;;9.30;99.90;;;;;;5083934;28;20605;-87
2021/04/30 07:07:38;;;;;;;10.23;9.33;;;9.20;99.90;;;;;;5087398;28;20651;-87
2021/04/30 07:10:08;;;;;;;9.37;8.57;;;9.00;99.90;;;;;;5086182;28;20659;-87
2021/04/30 07:12:39;;;;;;;9.60;8.80;;;9.20;99.90;;;;;;5083403;28;20628;-86
2021/04/30 07:15:11;;;;;;;10.00;9.17;;;9.30;99.90;;;;;;5096477;28;20662;-88
2021/04/30 07:17:39;;;;;;;9.27;8.40;;;9.20;99.90;;;;;;5088723;28;20632;-90
2021/04/30 07:20:09;;;;;;;9.70;9.00;;;9.20;99.90;;;;;;5094404;28;20674;-88
2021/04/30 07:22:41;;;;;;;10.07;9.27;;;9.10;99.90;;;;;;5087823;28;20632;-88
2021/04/30 07:25:12;;;;;;;10.30;9.50;;;9.40;99.90;;;;;;5091454;28;20676;-89
2021/04/30 07:27:42;;;;;;;8.87;8.17;;;9.50;99.90;;;;;;5092901;28;20663;-89
2021/04/30 07:30:10;;;;;;;11.53;10.47;;;9.40;99.90;;;;;;5090803;28;20636;-88
2021/04/30 07:32:36;;;;;;;10.17;9.27;;;9.40;99.90;;;;;;5095729;28;20624;-89
2021/04/30 07:35:10;;;;;;;10.70;9.80;;;9.40;99.90;;;;;;5089802;28;20627;-89
2021/04/30 07:37:38;;;;;;;10.17;9.20;;;9.40;99.90;;;;;;5087528;28;20688;-89
2021/04/30 07:40:08;;;;;;;10.83;9.87;;;9.50;99.90;;;;;;5091707;28;20717;-88
2021/04/30 07:42:36;;;;;;;10.20;9.30;;;9.70;99.90;;;;;;5093446;28;20632;-88
2021/04/30 07:45:04;;;;;;;9.43;8.77;;;9.60;99.90;;;;;;5093035;28;20656;-88
2021/04/30 07:47:31;;;;;;;12.47;10.17;;;9.50;99.90;;;;;;5092210;28;20624;-88
2021/04/30 07:49:57;;;;;;;10.40;9.40;;;9.50;99.90;;;;;;5089536;28;20637;-87
2021/04/30 07:52:25;;;;;;;9.73;8.90;;;9.50;99.90;;;;;;5091223;28;20624;-88
2021/04/30 07:54:51;;;;;;;11.37;10.27;;;9.50;99.90;;;;;;5093155;28;20665;-88
2021/04/30 07:57:18;;;;;;;12.80;10.20;;;9.60;99.90;;;;;;5094238;28;21090;-88
2021/04/30 07:59:44;;;;;;;10.37;9.50;;;9.70;99.90;;;;;;5096959;28;20679;-88
2021/04/30 08:02:14;;;;;;;10.40;9.33;;;9.80;99.90;;;;;;5097214;28;20648;-88
2021/04/30 08:04:41;;;;;;;10.17;9.40;;;9.80;99.90;;;;;;5091583;28;20692;-88
2021/04/30 08:07:10;;;;;;;10.90;10.00;;;9.70;99.90;;;;;;5092172;28;20667;-88
2021/04/30 08:09:37;;;;;;;10.77;9.77;;;9.70;99.90;;;;;;5090018;28;20690;-87
2021/04/30 08:12:03;;;;;;;10.00;9.10;;;9.80;99.90;;;;;;5095967;28;20643;-87
2021/04/30 08:14:30;;;;;;;11.03;9.93;;;9.80;99.90;;;;;;5093161;28;20616;-88
2021/04/30 08:16:57;;;;;;;9.77;8.97;;;9.80;99.90;;;;;;5086643;28;20643;-89
2021/04/30 08:19:25;;;;;;;9.80;9.00;;;9.80;99.90;;;;;;5085713;28;20648;-88
2021/04/30 08:21:53;;;;;;;10.07;9.17;;;9.70;99.90;;;;;;5086387;28;20689;-87
2021/04/30 08:24:21;;;;;;;10.00;9.00;;;9.60;99.90;;;;;;5086611;28;20642;-89
2021/04/30 08:26:48;;;;;;;10.80;9.70;;;9.60;99.90;;;;;;5090090;28;20746;-86
2021/04/30 08:29:15;;;;;;;10.30;9.37;;;9.70;99.90;;;;;;5090045;28;20733;-87
2021/04/30 08:31:42;;;;;;;11.47;10.37;;;9.80;99.90;;;;;;5088977;28;21214;-86
2021/04/30 08:34:09;;;;;;;10.23;9.33;;;9.90;99.90;;;;;;5087008;28;20609;-88
2021/04/30 08:36:37;;;;;;;9.87;9.17;;;9.70;99.90;;;;;;5085216;28;21157;-88
2021/04/30 08:39:05;;;;;;;10.73;9.83;;;9.70;99.90;;;;;;5091837;28;20923;-89
2021/04/30 08:41:35;;;;;;;11.07;10.07;;;9.80;99.90;;;;;;5089058;28;20717;-88
2021/04/30 08:44:02;;;;;;;10.20;9.33;;;9.80;99.90;;;;;;5089629;28;20989;-89
2021/04/30 08:46:29;;;;;;;10.63;9.77;;;9.90;99.90;;;;;;5099093;28;20636;-88
2021/04/30 08:49:01;;;;;;;10.20;9.30;;;9.90;99.90;;;;;;5089674;28;20613;-89
2021/04/30 08:51:29;;;;;;;11.37;10.27;;;9.90;99.90;;;;;;5090530;28;20787;-89
2021/04/30 08:53:57;;;;;;;10.53;9.53;;;10.10;99.90;;;;;;5089961;28;20634;-87
2021/04/30 08:56:23;;;;;;;10.77;9.77;;;10.30;99.90;;;;;;5088348;28;21212;-89
2021/04/30 08:58:51;;;;;;;10.27;9.37;;;10.50;99.90;;;;;;5090458;28;21214;-88
2021/04/30 09:01:18;;;;;;;10.57;9.63;;;10.70;99.90;;;;;;5093124;28;20628;-89
2021/04/30 09:03:52;;;;;;;10.00;9.20;;;10.80;99.90;;;;;;5089098;28;20643;-89
2021/04/30 09:06:44;;;;;;;12.37;10.67;;;10.90;99.90;;;;;;5090130;28;20624;-88
2021/04/30 09:09:13;;;;;;;9.80;8.80;;;11.10;99.90;;;;;;5091471;28;20647;-90
2021/04/30 09:11:43;;;;;;;10.50;9.47;;;11.20;99.90;;;;;;5093485;28;20655;-89
2021/04/30 09:14:29;;;;;;;10.73;9.90;;;11.00;99.90;;;;;;5090088;28;20688;-89
2021/04/30 09:17:05;;;;;;;10.83;9.97;;;10.60;99.90;;;;;;5090137;28;21151;-89
2021/04/30 09:19:36;;;;;;;12.50;10.43;;;10.40;99.90;;;;;;5088375;28;20648;-89
2021/04/30 09:22:05;;;;;;;10.33;9.50;;;10.10;99.90;;;;;;5092190;28;20639;-89
2021/04/30 09:24:33;;;;;;;11.70;10.70;;;10.10;99.90;;;;;;5098243;28;20731;-89
2021/04/30 09:27:07;;;;;;;12.53;11.43;;;10.30;99.90;;;;;;5091493;28;20626;-89
2021/04/30 09:29:36;;;;;;;10.87;10.00;;;10.40;99.90;;;;;;5090419;28;20620;-89
2021/04/30 09:32:04;;;;;;;12.37;11.17;;;9.90;99.90;;;;;;5092337;28;20643;-89
2021/04/30 09:34:33;;;;;;;11.63;10.63;;;9.70;99.90;;;;;;5097596;28;20713;-89
2021/04/30 09:37:09;;;;;;;13.87;12.77;;;9.80;99.90;;;;;;5097963;28;20628;-90
2021/04/30 09:39:53;;;;;;;13.37;11.97;;;9.60;99.90;;;;;;5103081;28;21065;-90
2021/04/30 09:42:23;;;;;;;12.27;11.17;;;9.80;99.90;;;;;;5102270;28;20634;-91
2021/04/30 09:44:51;;;;;;;11.73;10.83;;;9.90;99.90;;;;;;5109736;28;20690;-90
2021/04/30 09:47:21;;;;;;;10.90;10.00;;;10.10;99.90;;;;;;5111405;28;20616;-89
2021/04/30 09:49:57;;;;;;;10.53;9.63;;;10.30;99.90;;;;;;5110151;28;20644;-90
2021/04/30 09:52:53;;;;;;;13.63;11.27;;;10.20;99.90;;;;;;5111755;28;20627;-89
2021/04/30 09:55:38;;;;;;;13.40;12.10;;;10.00;99.90;;;;;;5114261;28;20711;-89
2021/04/30 09:58:21;;;;;;;12.83;11.73;;;10.00;99.90;;;;;;5114435;28;20660;-89
2021/04/30 10:00:49;;;;;;;13.47;12.33;;;10.00;99.90;;;;;;5113153;28;20674;-90
2021/04/30 10:03:19;;;;;;;13.97;12.63;;;10.10;99.90;;;;;;5114183;28;20658;-90
2021/04/30 10:06:15;;;;;;;13.30;12.20;;;9.90;99.90;;;;;;5116302;28;20599;-89
2021/04/30 10:08:42;;;;;;;13.67;12.50;;;9.90;99.90;;;;;;5116177;28;20639;-90
2021/04/30 10:11:33;;;;;;;12.60;11.23;;;10.10;99.90;;;;;;5108701;28;20678;-90
2021/04/30 10:14:00;;;;;;;13.13;11.87;;;10.40;99.90;;;;;;5086566;28;20627;-90
2021/04/30 10:16:28;;;;;;;14.17;12.60;;;10.20;99.90;;;;;;5116651;28;20650;-90
2021/04/30 10:18:59;;;;;;;13.20;12.20;;;10.30;99.90;;;;;;5105581;28;20623;-90
2021/04/30 10:21:29;;;;;;;12.97;11.87;;;10.20;99.90;;;;;;5113114;28;20650;-91
2021/04/30 10:23:56;;;;;;;13.93;12.73;;;10.20;99.90;;;;;;5121694;28;20635;-89
2021/04/30 10:26:22;;;;;;;13.70;12.70;;;10.20;99.90;;;;;;5115620;28;20687;-89
2021/04/30 10:28:57;;;;;;;16.23;14.63;;;10.20;99.90;;;;;;5101935;28;20624;-86
2021/04/30 10:31:30;;;;;;;14.73;13.30;;;10.00;99.90;;;;;;5111152;28;20641;-86
2021/04/30 10:34:04;;;;;;;14.03;12.97;;;9.90;99.90;;;;;;5114066;28;20614;-87
2021/04/30 10:36:35;;;;;;;13.73;12.57;;;10.00;99.90;;;;;;5115210;28;20656;-87
2021/04/30 10:39:06;;;;;;;14.97;13.57;;;9.90;99.90;;;;;;5110910;28;20648;-88
2021/04/30 10:41:41;;;;;;;14.87;13.57;;;9.80;99.90;;;;;;5109050;28;20652;-88
2021/04/30 10:44:15;;;;;;;17.30;13.30;;;9.70;99.90;;;;;;5102103;28;21055;-88
2021/04/30 10:46:51;;;;;;;15.93;14.63;;;9.50;99.90;;;;;;5100103;28;20658;-87
2021/04/30 10:49:21;;;;;;;16.10;14.70;;;9.30;99.90;;;;;;5101650;28;20617;-88
2021/04/30 10:52:20;;;;;;;16.90;15.57;;;9.30;99.90;;;;;;5099864;28;20639;-87
2021/04/30 10:55:00;;;;;;;18.27;16.57;;;9.00;99.90;;;;;;5094750;28;20638;-87
2021/04/30 10:57:28;;;;;;;16.83;15.20;;;9.00;99.90;;;;;;5102084;28;20620;-87
2021/04/30 11:00:06;;;;;;;18.67;16.97;;;8.80;99.90;;;;;;5103995;28;20771;-87
2021/04/30 11:02:34;;;;;;;19.33;17.73;;;8.70;99.90;;;;;;5105668;28;20608;-89
2021/04/30 11:05:16;;;;;;;19.83;18.23;;;8.60;99.90;;;;;;5100992;28;20640;-89
2021/04/30 11:07:47;;;;;;;21.30;19.40;;;8.70;99.90;;;;;;5108018;28;20638;-90
2021/04/30 11:10:36;;;;;;;21.87;19.57;;;8.60;99.90;;;;;;5106529;28;20667;-90
2021/04/30 11:13:14;;;;;;;21.20;19.23;;;8.40;99.90;;;;;;5108803;28;20620;-89
2021/04/30 11:15:57;;;;;;;22.40;20.50;;;8.40;99.90;;;;;;5099797;28;21027;-89
2021/04/30 11:18:30;;;;;;;23.50;21.50;;;8.20;99.90;;;;;;5099931;28;21018;-90
2021/04/30 11:21:12;;;;;;;23.70;21.60;;;8.20;99.90;;;;;;5101720;28;20685;-90
2021/04/30 11:23:50;;;;;;;24.87;22.30;;;8.10;99.90;;;;;;5100525;28;20635;-90
2021/04/30 11:26:32;;;;;;;22.97;21.17;;;8.10;99.90;;;;;;5092908;28;20640;-89
2021/04/30 11:29:11;;;;;;;24.10;22.10;;;8.20;99.90;;;;;;5091185;28;20632;-90
2021/04/30 11:31:43;;;;;;;21.40;19.40;;;8.20;99.90;;;;;;5088037;28;20970;-88
2021/04/30 11:34:19;;;;;;;19.70;18.00;;;8.00;99.90;;;;;;5088031;28;20714;-90
2021/04/30 11:36:57;;;;;;;20.13;18.50;;;8.00;99.90;;;;;;5086270;28;20639;-89
2021/04/30 11:39:30;;;;;;;19.73;18.00;;;7.90;99.90;;;;;;5086800;28;20691;-90
2021/04/30 11:42:00;;;;;;;21.27;19.37;;;7.80;99.90;;;;;;5087000;28;21163;-89
2021/04/30 11:44:28;;;;;;;21.37;19.57;;;7.70;99.90;;;;;;5089039;28;20707;-90
2021/04/30 11:47:02;;;;;;;21.90;20.00;;;7.70;99.90;;;;;;5089376;28;20642;-89
2021/04/30 11:49:30;;;;;;;21.67;19.77;;;7.70;99.90;;;;;;5088821;28;20655;-90
2021/04/30 11:51:56;;;;;;;22.37;20.20;;;7.70;99.90;;;;;;5088969;28;20982;-89
2021/04/30 11:54:28;;;;;;;23.80;21.90;;;7.80;99.90;;;;;;5088067;28;20624;-89
2021/04/30 11:56:59;;;;;;;24.23;22.13;;;7.70;99.90;;;;;;5090385;28;21222;-90
2021/04/30 11:59:25;;;;;;;24.20;22.10;;;7.80;99.90;;;;;;5088549;28;20655;-90
2021/04/30 12:02:12;;;;;;;22.87;20.77;;;7.90;99.90;;;;;;5091933;28;20689;-89
2021/04/30 12:04:47;;;;;;;25.13;22.73;;;7.70;99.90;;;;;;5092194;28;20608;-91
2021/04/30 12:07:15;;;;;;;24.40;22.30;;;7.70;99.90;;;;;;5091650;28;20631;-90
2021/04/30 12:09:45;;;;;;;23.93;21.83;;;7.60;99.90;;;;;;5089296;28;21188;-91
2021/04/30 12:12:16;;;;;;;25.27;23.07;;;7.70;99.90;;;;;;5097107;28;20626;-88
2021/04/30 12:14:50;;;;;;;23.10;21.00;;;7.50;99.90;;;;;;5092091;28;20654;-90
2021/04/30 12:17:24;;;;;;;23.73;21.50;;;7.50;99.90;;;;;;5087685;28;20658;-90
2021/04/30 12:19:58;;;;;;;23.93;21.70;;;7.50;99.90;;;;;;5088754;28;20728;-88
2021/04/30 12:22:33;;;;;;;24.50;22.57;;;7.50;99.90;;;;;;5089552;28;20633;-88
2021/04/30 12:25:21;;;;;;;25.70;23.30;;;7.50;99.90;;;;;;5099635;28;20624;-90
2021/04/30 12:27:48;;;;;;;23.23;21.20;;;7.50;99.90;;;;;;5094089;28;20623;-90
2021/04/30 12:30:26;;;;;;;24.47;22.37;;;7.20;99.90;;;;;;5095542;28;20731;-90
2021/04/30 12:32:53;;;;;;;23.90;22.00;;;7.20;99.90;;;;;;5089597;28;20631;-90
2021/04/30 12:35:20;;;;;;;21.53;19.73;;;7.10;99.90;;;;;;5086837;28;20699;-90
2021/04/30 12:37:47;;;;;;;22.53;20.63;;;7.20;99.90;;;;;;5087544;28;21166;-90
2021/04/30 12:40:15;;;;;;;22.80;20.80;;;7.30;99.90;;;;;;5089196;28;20759;-92
2021/04/30 12:42:48;;;;;;;21.77;20.07;;;7.40;99.90;;;;;;5096979;28;20628;-90
2021/04/30 12:45:15;;;;;;;20.37;18.63;;;7.50;99.90;;;;;;5084531;28;20652;-90
2021/04/30 12:47:42;;;;;;;20.90;19.13;;;7.40;99.90;;;;;;5086184;28;20639;-92
2021/04/30 12:50:14;;;;;;;21.47;19.27;;;7.60;99.90;;;;;;5086156;28;20703;-90
2021/04/30 12:52:40;;;;;;;19.07;17.40;;;7.50;99.90;;;;;;5086032;28;20632;-92
2021/04/30 12:55:25;;;;;;;18.63;17.13;;;7.60;99.90;;;;;;5091267;28;20822;-93
2021/04/30 12:58:08;;;;;;;22.23;20.30;;;7.70;99.90;;;;;;5092749;28;20636;-91
2021/04/30 13:00:53;;;;;;;18.80;16.93;;;7.70;99.90;;;;;;5084311;28;20688;-85